Airport Information

KBDN - Bend Municipal Airport

KBDN 160855Z AUTO 00000KT 1/4SM FZFG OVC001 M03/M03 A2981 RMK AO2


  • General Information

  • Coordinates: N 44°5'40"/ W 121°12'0"
  • Location: N/A
  • Surveyed Elevation: 3460 MSL

Operations

Flow Name Active Runways Conditions

Green background denotes normal operations.


Common Frequencies

Callsign Frequency Position Name

More at the Document Center


Charts